Time;durP1;ratioP1;P1;durP2;ratioP2;P2;SDS_P1;SDS_P2;PMS_P1;PMS_P2;Temp;Humidity;BMP_temperature;BMP_pressure;BME280_temperature;BME280_humidity;BME280_pressure;Samples;Min_cycle;Max_cycle;Signal;HPM_P1;HPM_P2
2023/08/25 00:02:18;;;;;;;13.50;8.70;;;16.10;99.90;;;;;;4901154;29;20534;-70
2023/08/25 00:04:43;;;;;;;14.60;8.52;;;16.00;99.90;;;;;;4902588;29;20032;-70
2023/08/25 00:07:09;;;;;;;14.23;7.88;;;16.00;99.90;;;;;;4898554;29;20461;-70
2023/08/25 00:09:35;;;;;;;12.98;8.55;;;16.00;99.90;;;;;;4903482;29;20043;-70
2023/08/25 00:12:01;;;;;;;12.10;7.57;;;16.00;99.90;;;;;;4899742;29;20032;-70
2023/08/25 00:14:27;;;;;;;15.18;7.88;;;16.00;99.90;;;;;;4895900;29;20392;-70
2023/08/25 00:16:52;;;;;;;13.45;8.07;;;16.00;99.90;;;;;;4902386;29;20032;-70
2023/08/25 00:19:18;;;;;;;10.95;7.57;;;16.00;99.90;;;;;;4911576;29;20055;-70
2023/08/25 00:21:45;;;;;;;12.15;7.88;;;16.00;99.90;;;;;;4898808;29;20048;-70
2023/08/25 00:24:10;;;;;;;11.30;7.53;;;15.90;99.90;;;;;;4904939;29;20031;-70
2023/08/25 00:26:37;;;;;;;11.43;6.20;;;15.90;99.90;;;;;;4894730;29;20396;-69
2023/08/25 00:29:03;;;;;;;25.15;6.90;;;15.90;99.90;;;;;;4901189;29;20056;-70
2023/08/25 00:31:29;;;;;;;11.25;7.13;;;15.90;99.90;;;;;;4899109;29;20469;-70
2023/08/25 00:33:54;;;;;;;12.02;6.65;;;15.90;99.90;;;;;;4903730;29;20119;-70
2023/08/25 00:36:20;;;;;;;8.68;6.40;;;15.80;99.90;;;;;;4907509;29;20024;-70
2023/08/25 00:38:46;;;;;;;12.38;7.78;;;15.80;99.90;;;;;;4900853;29;20034;-69
2023/08/25 00:41:11;;;;;;;11.18;6.22;;;15.80;99.90;;;;;;4902499;29;20040;-70
2023/08/25 00:43:39;;;;;;;18.80;7.68;;;15.80;99.90;;;;;;4904161;29;20107;-70
2023/08/25 00:46:05;;;;;;;17.10;6.60;;;15.80;99.90;;;;;;4902887;29;20051;-70
2023/08/25 00:48:31;;;;;;;10.60;6.32;;;15.80;99.90;;;;;;4903478;29;20039;-70
2023/08/25 00:50:58;;;;;;;8.60;6.70;;;15.80;99.90;;;;;;4904995;29;20032;-70
2023/08/25 00:53:24;;;;;;;8.20;6.05;;;15.80;99.90;;;;;;4915008;29;20035;-69
2023/08/25 00:55:50;;;;;;;12.15;6.13;;;15.80;99.90;;;;;;4902714;29;20028;-70
2023/08/25 00:58:17;;;;;;;8.20;5.63;;;15.80;99.90;;;;;;4903313;29;20131;-70
2023/08/25 01:00:44;;;;;;;13.10;6.15;;;15.70;99.90;;;;;;4912515;29;20059;-70
2023/08/25 01:03:10;;;;;;;8.85;5.53;;;15.80;99.90;;;;;;4900674;29;20028;-70
2023/08/25 01:05:36;;;;;;;9.98;5.55;;;15.70;99.90;;;;;;4901299;29;20091;-70
2023/08/25 01:08:05;;;;;;;9.25;5.03;;;15.70;99.90;;;;;;4902062;29;20028;-70
2023/08/25 01:10:55;;;;;;;9.18;5.32;;;15.70;99.90;;;;;;4890681;29;20528;-69
2023/08/25 01:13:36;;;;;;;7.60;4.75;;;15.70;99.90;;;;;;4899428;29;20588;-70
2023/08/25 01:16:05;;;;;;;6.40;4.47;;;15.60;99.90;;;;;;4900736;29;20036;-70
2023/08/25 01:18:33;;;;;;;8.23;4.90;;;15.60;99.90;;;;;;4912137;29;20580;-70
2023/08/25 01:21:00;;;;;;;10.82;4.90;;;15.60;99.90;;;;;;4909158;29;20070;-70
2023/08/25 01:23:47;;;;;;;8.18;4.78;;;15.60;99.90;;;;;;4900545;29;20032;-70
2023/08/25 01:26:13;;;;;;;6.53;4.68;;;15.60;99.90;;;;;;4901054;29;20513;-70
2023/08/25 01:28:41;;;;;;;10.05;4.90;;;15.60;99.90;;;;;;4897238;29;20515;-70
2023/08/25 01:31:07;;;;;;;8.10;4.30;;;15.50;99.90;;;;;;4904508;29;20071;-70
2023/08/25 01:33:33;;;;;;;7.78;4.63;;;15.50;99.90;;;;;;4898463;29;20491;-70
2023/08/25 01:35:59;;;;;;;7.82;4.53;;;15.50;99.90;;;;;;4898389;29;20522;-69
2023/08/25 01:38:33;;;;;;;6.03;4.10;;;15.50;99.90;;;;;;4898953;29;20070;-69
2023/08/25 01:41:04;;;;;;;4.60;3.45;;;15.40;99.90;;;;;;4898165;29;20043;-70
2023/08/25 01:43:34;;;;;;;8.60;4.40;;;15.30;99.90;;;;;;4905418;29;20039;-70
2023/08/25 01:46:00;;;;;;;7.07;3.95;;;15.30;99.90;;;;;;4899398;29;20040;-70
2023/08/25 01:48:28;;;;;;;5.45;3.60;;;15.30;99.90;;;;;;4906680;29;20518;-70
2023/08/25 01:50:54;;;;;;;5.40;3.72;;;15.30;99.90;;;;;;4903227;29;20206;-70
2023/08/25 01:53:21;;;;;;;5.57;3.53;;;15.30;99.90;;;;;;4911615;29;20039;-70
2023/08/25 01:55:46;;;;;;;5.75;3.58;;;15.30;99.90;;;;;;4900487;29;20043;-70
2023/08/25 01:58:14;;;;;;;4.35;3.35;;;15.20;99.90;;;;;;4901271;29;20036;-69
2023/08/25 02:00:41;;;;;;;6.85;3.60;;;15.20;99.90;;;;;;4902644;29;20079;-70
2023/08/25 02:03:06;;;;;;;5.43;3.33;;;15.10;99.90;;;;;;4893562;29;20139;-70
2023/08/25 02:05:32;;;;;;;5.50;3.30;;;15.10;99.90;;;;;;4902491;29;20102;-70
2023/08/25 02:07:58;;;;;;;5.30;3.58;;;15.20;99.90;;;;;;4900252;29;20043;-70
2023/08/25 02:10:23;;;;;;;7.78;4.00;;;15.10;99.90;;;;;;4897654;29;20028;-70
2023/08/25 02:12:49;;;;;;;7.55;4.35;;;15.20;99.90;;;;;;4897617;29;20252;-70
2023/08/25 02:15:15;;;;;;;6.03;3.85;;;15.30;99.90;;;;;;4905454;29;20035;-70
2023/08/25 02:17:40;;;;;;;5.25;3.88;;;15.30;99.90;;;;;;4914246;29;20506;-69
2023/08/25 02:20:07;;;;;;;7.45;4.00;;;15.40;99.90;;;;;;4904755;29;20067;-70
2023/08/25 02:22:33;;;;;;;5.82;4.20;;;15.50;99.90;;;;;;4899349;29;20127;-70
2023/08/25 02:24:59;;;;;;;5.78;4.20;;;15.50;99.90;;;;;;4906483;29;20658;-69
2023/08/25 02:27:25;;;;;;;5.38;4.05;;;15.60;99.90;;;;;;4912928;29;20122;-70
2023/08/25 02:29:51;;;;;;;6.70;3.88;;;15.60;99.90;;;;;;4897655;29;20107;-70
2023/08/25 02:32:17;;;;;;;7.43;3.85;;;15.60;99.90;;;;;;4914382;29;20525;-70
2023/08/25 02:34:43;;;;;;;6.78;4.05;;;15.60;99.90;;;;;;4897765;29;20036;-70
2023/08/25 02:37:08;;;;;;;6.22;4.00;;;15.60;99.90;;;;;;4901005;29;20167;-70
2023/08/25 02:39:34;;;;;;;5.07;3.53;;;15.60;99.90;;;;;;4898354;29;20500;-70
2023/08/25 02:41:59;;;;;;;6.05;4.00;;;15.60;99.90;;;;;;4901198;29;20036;-70
2023/08/25 02:44:25;;;;;;;11.35;4.18;;;15.60;99.90;;;;;;4900206;29;20111;-70
2023/08/25 02:46:51;;;;;;;5.90;3.70;;;15.60;99.90;;;;;;4901765;29;20052;-70
2023/08/25 02:49:17;;;;;;;10.57;4.30;;;15.60;99.90;;;;;;4899563;29;20415;-70
2023/08/25 02:51:43;;;;;;;5.88;3.90;;;15.60;99.90;;;;;;4897971;29;20036;-70
2023/08/25 02:54:08;;;;;;;6.25;4.00;;;15.60;99.90;;;;;;4898584;29;20119;-70
2023/08/25 02:56:34;;;;;;;8.98;4.10;;;15.70;99.90;;;;;;4906278;29;20440;-70
2023/08/25 02:58:59;;;;;;;7.78;4.07;;;15.70;99.90;;;;;;4899027;29;21784;-70
2023/08/25 03:01:25;;;;;;;6.57;3.97;;;15.70;99.90;;;;;;4903155;29;20091;-69
2023/08/25 03:03:51;;;;;;;6.20;3.67;;;15.70;99.90;;;;;;4905332;29;20050;-70
2023/08/25 03:06:17;;;;;;;9.63;3.90;;;15.70;99.90;;;;;;4898810;29;20036;-70
2023/08/25 03:08:45;;;;;;;8.75;3.70;;;15.60;99.90;;;;;;4901767;29;20550;-70
2023/08/25 03:11:10;;;;;;;5.78;3.13;;;15.50;99.90;;;;;;4901990;29;20484;-70
2023/08/25 03:13:36;;;;;;;8.15;3.60;;;15.50;99.90;;;;;;4900305;29;20507;-70
2023/08/25 03:16:02;;;;;;;5.85;3.70;;;15.40;99.90;;;;;;4903085;29;20043;-70
2023/08/25 03:18:28;;;;;;;4.70;3.60;;;15.30;99.90;;;;;;4903959;29;20527;-70
2023/08/25 03:20:54;;;;;;;5.75;3.83;;;15.20;99.90;;;;;;4897462;29;20047;-70
2023/08/25 03:23:20;;;;;;;6.20;3.72;;;15.10;99.90;;;;;;4904567;29;20024;-70
2023/08/25 03:25:46;;;;;;;4.03;3.58;;;15.00;99.90;;;;;;4900590;29;20127;-70
2023/08/25 03:28:11;;;;;;;6.88;3.67;;;14.90;99.90;;;;;;4908216;29;20399;-69
2023/08/25 03:30:37;;;;;;;6.80;3.38;;;14.90;99.90;;;;;;4903063;29;20121;-69
2023/08/25 03:33:04;;;;;;;7.80;3.78;;;14.70;99.90;;;;;;4905502;29;20051;-70
2023/08/25 03:35:37;;;;;;;7.97;3.70;;;14.70;99.90;;;;;;4901344;29;20054;-70
2023/08/25 03:38:03;;;;;;;6.75;3.83;;;14.60;99.90;;;;;;4898589;29;20091;-70
2023/08/25 03:40:28;;;;;;;5.75;3.85;;;14.50;99.90;;;;;;4896213;29;20640;-69
2023/08/25 03:42:54;;;;;;;4.70;3.67;;;14.50;99.90;;;;;;4906865;29;20039;-70
2023/08/25 03:45:20;;;;;;;4.20;3.70;;;14.40;99.90;;;;;;4900097;29;20040;-70
2023/08/25 03:47:46;;;;;;;4.40;3.65;;;14.40;99.90;;;;;;4902169;29;20072;-70
2023/08/25 03:50:12;;;;;;;8.43;4.00;;;14.30;99.90;;;;;;4904767;29;20035;-70
2023/08/25 03:52:37;;;;;;;5.32;3.80;;;14.30;99.90;;;;;;4909516;29;20515;-70
2023/08/25 03:55:04;;;;;;;5.68;3.78;;;14.20;99.90;;;;;;4913341;29;20900;-70
2023/08/25 03:57:30;;;;;;;10.52;4.97;;;14.20;99.90;;;;;;4898177;29;20111;-70
2023/08/25 03:59:55;;;;;;;6.28;3.58;;;14.10;99.90;;;;;;4903070;29;20036;-69
2023/08/25 04:02:21;;;;;;;9.07;3.63;;;14.10;99.90;;;;;;4898874;29;20158;-70
2023/08/25 04:04:46;;;;;;;4.75;3.78;;;14.00;99.90;;;;;;4898365;29;20024;-70
2023/08/25 04:07:15;;;;;;;6.00;4.03;;;14.00;99.90;;;;;;4909438;29;20040;-69
2023/08/25 04:09:41;;;;;;;6.85;3.50;;;14.00;99.90;;;;;;4901014;29;20032;-69
2023/08/25 04:12:07;;;;;;;7.95;4.03;;;13.90;99.90;;;;;;4903179;29;20028;-70
2023/08/25 04:14:33;;;;;;;5.47;4.07;;;13.90;99.90;;;;;;4907857;29;20437;-70
2023/08/25 04:16:59;;;;;;;8.48;3.75;;;13.90;99.90;;;;;;4913892;29;20036;-70
2023/08/25 04:19:25;;;;;;;5.30;3.55;;;13.90;99.90;;;;;;4906755;29;20039;-70
2023/08/25 04:21:50;;;;;;;7.78;4.07;;;13.80;99.90;;;;;;4901772;29;20153;-70
2023/08/25 04:24:17;;;;;;;7.57;4.30;;;13.80;99.90;;;;;;4912978;29;20406;-70
2023/08/25 04:26:43;;;;;;;5.47;3.88;;;13.80;99.90;;;;;;4911465;29;20052;-70
2023/08/25 04:29:09;;;;;;;8.85;3.95;;;13.80;99.90;;;;;;4925482;29;20082;-70
2023/08/25 04:31:38;;;;;;;6.47;3.80;;;13.80;99.90;;;;;;4898254;29;20079;-70
2023/08/25 04:34:05;;;;;;;7.20;4.15;;;13.80;99.90;;;;;;4890954;29;20035;-70
2023/08/25 04:36:33;;;;;;;5.22;3.85;;;13.80;99.90;;;;;;4899546;29;20095;-70
2023/08/25 04:38:58;;;;;;;5.60;3.58;;;13.80;99.90;;;;;;4913811;29;20050;-70
2023/08/25 04:41:24;;;;;;;6.03;4.28;;;13.90;99.90;;;;;;4898179;29;20125;-70
2023/08/25 04:43:49;;;;;;;5.10;3.92;;;13.90;99.90;;;;;;4903336;29;20119;-70
2023/08/25 04:46:15;;;;;;;7.35;4.30;;;13.90;99.90;;;;;;4915303;29;20435;-70
2023/08/25 04:48:45;;;;;;;11.38;4.95;;;14.00;99.90;;;;;;4903754;29;20115;-70
2023/08/25 04:51:11;;;;;;;6.53;5.07;;;14.00;99.90;;;;;;4904095;29;20043;-70
2023/08/25 04:53:37;;;;;;;8.48;4.68;;;14.00;99.90;;;;;;4902903;29;20130;-70
2023/08/25 04:56:03;;;;;;;8.20;5.00;;;14.10;99.90;;;;;;4901032;29;20046;-71
2023/08/25 04:58:28;;;;;;;6.93;5.07;;;14.10;99.90;;;;;;4912514;29;20038;-69
2023/08/25 05:00:54;;;;;;;8.73;4.45;;;14.20;99.90;;;;;;4905305;29;20044;-70
2023/08/25 05:03:20;;;;;;;6.35;4.68;;;14.20;99.90;;;;;;4900541;29;20067;-70
2023/08/25 05:05:45;;;;;;;7.65;5.20;;;14.20;99.90;;;;;;4898646;29;20486;-70
2023/08/25 05:08:11;;;;;;;8.10;5.03;;;14.20;99.90;;;;;;4902836;29;20032;-70
2023/08/25 05:10:37;;;;;;;7.50;5.45;;;14.20;99.90;;;;;;4906324;29;20059;-70
2023/08/25 05:13:03;;;;;;;5.97;4.88;;;14.20;99.90;;;;;;4893906;29;20031;-70
2023/08/25 05:15:29;;;;;;;10.50;5.03;;;14.20;99.90;;;;;;4901559;29;20369;-70
2023/08/25 05:17:54;;;;;;;8.93;4.97;;;14.20;99.90;;;;;;4906157;29;20024;-70
2023/08/25 05:20:23;;;;;;;10.27;4.63;;;14.20;99.90;;;;;;4905855;29;20044;-70
2023/08/25 05:22:50;;;;;;;8.30;4.78;;;14.20;99.90;;;;;;4914489;29;20381;-70
2023/08/25 05:25:17;;;;;;;8.10;4.65;;;14.30;99.90;;;;;;4913750;29;20036;-70
2023/08/25 05:27:42;;;;;;;7.00;4.85;;;14.30;99.90;;;;;;4905443;29;20908;-70
2023/08/25 05:30:08;;;;;;;7.38;5.07;;;14.40;99.90;;;;;;4895711;29;20044;-70
2023/08/25 05:32:34;;;;;;;7.50;4.88;;;14.50;99.90;;;;;;4897991;29;20028;-70
2023/08/25 05:35:00;;;;;;;5.50;4.40;;;14.50;99.90;;;;;;4906756;29;20548;-69
2023/08/25 05:37:25;;;;;;;9.00;4.25;;;14.50;99.90;;;;;;4900863;29;20111;-70
2023/08/25 05:39:52;;;;;;;10.88;4.85;;;14.50;99.90;;;;;;4907819;29;20035;-69
2023/08/25 05:42:18;;;;;;;4.82;3.70;;;14.50;99.90;;;;;;4910495;29;20031;-70
2023/08/25 05:44:43;;;;;;;7.68;3.80;;;14.50;99.90;;;;;;4900377;29;20035;-70
2023/08/25 05:47:09;;;;;;;7.53;3.67;;;14.50;99.90;;;;;;4902102;29;20077;-70
2023/08/25 05:49:34;;;;;;;5.00;3.60;;;14.40;99.90;;;;;;4906557;29;20058;-70
2023/08/25 05:52:00;;;;;;;5.05;3.33;;;14.40;99.90;;;;;;4898261;29;20072;-70
2023/08/25 05:54:26;;;;;;;5.85;3.53;;;14.40;99.90;;;;;;4900431;29;20135;-69
2023/08/25 05:56:53;;;;;;;7.55;3.50;;;14.50;99.90;;;;;;4900174;29;20090;-69
2023/08/25 05:59:19;;;;;;;6.60;3.30;;;14.40;99.90;;;;;;4913275;29;20032;-70
2023/08/25 06:01:45;;;;;;;4.15;2.83;;;14.50;99.90;;;;;;4895983;29;20932;-70
2023/08/25 06:04:11;;;;;;;4.07;2.85;;;14.50;99.90;;;;;;4906659;29;20039;-69
2023/08/25 06:06:38;;;;;;;5.65;3.50;;;14.60;99.90;;;;;;4910656;29;20040;-70
2023/08/25 06:09:05;;;;;;;194.07;100.03;;;14.70;99.90;;;;;;4900004;29;20051;-70
2023/08/25 06:11:30;;;;;;;24.95;13.75;;;14.80;99.90;;;;;;4898737;29;20447;-69
2023/08/25 06:13:56;;;;;;;8.43;5.05;;;14.90;99.90;;;;;;4894420;29;20032;-70
2023/08/25 06:16:23;;;;;;;4.05;3.28;;;15.10;99.90;;;;;;4897876;29;20115;-70
2023/08/25 06:18:48;;;;;;;6.53;3.00;;;15.30;99.90;;;;;;4896403;29;20602;-70
2023/08/25 06:21:14;;;;;;;5.65;2.85;;;15.40;99.90;;;;;;4897160;29;20036;-70
2023/08/25 06:23:40;;;;;;;5.57;2.60;;;15.50;99.90;;;;;;4888197;29;20039;-70
2023/08/25 06:26:06;;;;;;;17.25;8.93;;;15.60;99.90;;;;;;4891359;29;20487;-70
2023/08/25 06:28:33;;;;;;;120.45;68.00;;;15.70;99.90;;;;;;4894339;29;20030;-70
2023/08/25 06:30:59;;;;;;;17.83;9.27;;;15.80;99.90;;;;;;4889916;29;20032;-72
2023/08/25 06:33:29;;;;;;;5.57;4.05;;;15.90;99.90;;;;;;4893830;29;20032;-70
2023/08/25 06:35:56;;;;;;;3.70;2.20;;;16.00;99.90;;;;;;4889143;29;20126;-70
2023/08/25 06:38:22;;;;;;;4.85;2.47;;;16.00;99.90;;;;;;4886560;29;20040;-70
2023/08/25 06:40:48;;;;;;;8.55;2.08;;;15.90;99.90;;;;;;4882829;29;20043;-70
2023/08/25 06:43:13;;;;;;;179.52;99.57;;;15.90;99.90;;;;;;4884947;29;20064;-70
2023/08/25 06:45:39;;;;;;;41.70;23.15;;;15.70;99.90;;;;;;4890303;29;20587;-69
2023/08/25 06:48:05;;;;;;;5.45;3.00;;;15.70;99.90;;;;;;4896690;29;20888;-69
2023/08/25 06:50:31;;;;;;;5.97;2.20;;;15.60;99.90;;;;;;4892705;29;20036;-70
2023/08/25 06:52:56;;;;;;;5.10;2.30;;;15.60;99.90;;;;;;4894752;29;20028;-69
2023/08/25 06:55:24;;;;;;;5.47;2.50;;;15.60;99.90;;;;;;4891872;29;20076;-70
2023/08/25 06:57:49;;;;;;;13.93;9.05;;;15.70;99.90;;;;;;4892805;29;20043;-70
2023/08/25 07:00:17;;;;;;;13.90;6.95;;;15.90;99.90;;;;;;4890838;29;20056;-71
2023/08/25 07:02:44;;;;;;;4.57;1.83;;;16.20;99.90;;;;;;4891812;29;20024;-71
2023/08/25 07:05:11;;;;;;;4.75;2.10;;;16.60;99.90;;;;;;4894622;29;20179;-69
2023/08/25 07:07:37;;;;;;;4.47;1.63;;;17.00;99.90;;;;;;4894965;29;20036;-71
2023/08/25 07:10:04;;;;;;;2.53;1.50;;;17.40;99.90;;;;;;4899712;29;20221;-70
2023/08/25 07:12:30;;;;;;;1.98;1.45;;;17.90;99.90;;;;;;4893796;29;20564;-70
2023/08/25 07:14:55;;;;;;;4.47;1.55;;;18.40;99.90;;;;;;4915283;29;20070;-70
2023/08/25 07:17:21;;;;;;;6.78;1.27;;;18.90;99.90;;;;;;4902284;29;20024;-70
2023/08/25 07:19:47;;;;;;;2.47;1.10;;;19.20;99.90;;;;;;4902637;29;20042;-70
2023/08/25 07:22:12;;;;;;;4.75;1.20;;;19.50;99.90;;;;;;4896574;29;20461;-68
2023/08/25 07:24:38;;;;;;;2.33;0.90;;;19.90;99.90;;;;;;4900080;29;20195;-68
2023/08/25 07:27:04;;;;;;;3.97;1.33;;;20.10;99.90;;;;;;4900557;29;20036;-69
2023/08/25 07:29:29;;;;;;;3.05;1.10;;;20.20;99.90;;;;;;4902188;29;20032;-69
2023/08/25 07:31:55;;;;;;;6.28;1.50;;;20.30;99.90;;;;;;4899071;29;20139;-68
2023/08/25 07:34:21;;;;;;;4.80;1.40;;;20.40;99.90;;;;;;4893903;29;20101;-71
2023/08/25 07:36:47;;;;;;;3.03;1.27;;;20.50;99.90;;;;;;4889864;29;20046;-70
2023/08/25 07:39:12;;;;;;;1.77;1.10;;;20.60;99.90;;;;;;4890462;29;20160;-70
2023/08/25 07:41:38;;;;;;;3.30;1.05;;;20.70;99.90;;;;;;4896114;29;20484;-69
2023/08/25 07:44:04;;;;;;;1.33;0.80;;;20.70;99.90;;;;;;4896422;29;20036;-69
2023/08/25 07:46:33;;;;;;;3.95;1.00;;;20.70;99.90;;;;;;4904022;29;20516;-68
2023/08/25 07:48:59;;;;;;;2.28;0.80;;;20.90;99.90;;;;;;4900521;29;20491;-68
2023/08/25 07:51:24;;;;;;;1.42;0.90;;;21.10;99.90;;;;;;4912653;29;20064;-68
2023/08/25 07:53:50;;;;;;;4.30;0.80;;;21.40;99.90;;;;;;4893441;29;20042;-68
2023/08/25 07:56:16;;;;;;;4.35;0.85;;;23.30;99.90;;;;;;4893727;29;20087;-69
2023/08/25 07:58:42;;;;;;;6.40;1.00;;;25.70;99.90;;;;;;4889101;29;20032;-69
2023/08/25 08:01:09;;;;;;;5.28;0.85;;;27.60;95.00;;;;;;4893572;29;20044;-68
2023/08/25 08:03:35;;;;;;;3.67;0.90;;;29.30;90.40;;;;;;4887526;29;20040;-69
2023/08/25 08:06:00;;;;;;;4.40;0.82;;;30.60;80.80;;;;;;4898222;29;20063;-69
2023/08/25 08:08:26;;;;;;;4.85;0.80;;;31.70;72.10;;;;;;4891689;29;20036;-72
2023/08/25 08:10:51;;;;;;;1.80;0.65;;;32.70;65.20;;;;;;4888683;29;20064;-68
2023/08/25 08:13:17;;;;;;;2.08;0.63;;;33.50;62.90;;;;;;4916285;29;20032;-70
2023/08/25 08:15:43;;;;;;;3.10;0.57;;;34.20;58.40;;;;;;4224403;29;10000740;-69
2023/08/25 08:18:08;;;;;;;3.13;0.90;;;33.10;56.40;;;;;;4897620;29;20087;-68
2023/08/25 08:20:34;;;;;;;4.30;0.80;;;32.50;58.50;;;;;;4898700;29;20066;-68
2023/08/25 08:23:00;;;;;;;3.15;0.70;;;33.10;57.00;;;;;;4899835;29;20028;-68
2023/08/25 08:25:26;;;;;;;2.20;0.82;;;33.70;55.00;;;;;;4893967;29;20091;-68
2023/08/25 08:27:51;;;;;;;3.05;0.70;;;35.00;51.20;;;;;;4910510;29;20264;-68
2023/08/25 08:30:19;;;;;;;3.50;0.82;;;35.60;51.20;;;;;;4914047;29;20036;-68
2023/08/25 08:32:46;;;;;;;1.67;0.50;;;36.30;49.70;;;;;;4893506;29;20364;-68
2023/08/25 08:35:12;;;;;;;3.75;0.65;;;36.90;47.40;;;;;;4893538;29;20067;-68
2023/08/25 08:37:39;;;;;;;1.27;0.50;;;37.30;46.50;;;;;;4893811;29;20726;-68
2023/08/25 08:40:06;;;;;;;6.00;0.70;;;38.20;43.50;;;;;;4888924;29;20040;-68
2023/08/25 08:42:37;;;;;;;1.27;0.47;;;38.20;45.10;;;;;;4894265;29;20511;-68
2023/08/25 08:45:08;;;;;;;1.55;0.60;;;38.60;42.90;;;;;;4890475;29;20028;-68
2023/08/25 08:47:35;;;;;;;1.95;0.52;;;38.80;41.40;;;;;;4894740;29;20146;-68
2023/08/25 08:50:02;;;;;;;4.25;0.73;;;38.60;43.40;;;;;;4898936;29;20031;-68
2023/08/25 08:52:29;;;;;;;1.95;0.60;;;38.60;42.50;;;;;;4900495;29;20033;-68
2023/08/25 08:54:58;;;;;;;1.90;0.55;;;39.10;40.80;;;;;;4900810;29;20449;-68
2023/08/25 08:57:25;;;;;;;4.97;0.60;;;39.60;41.60;;;;;;4913106;29;20738;-68
2023/08/25 08:59:54;;;;;;;2.67;0.57;;;40.20;39.10;;;;;;4900600;29;20036;-68
2023/08/25 09:02:20;;;;;;;4.57;0.60;;;40.10;39.40;;;;;;4902030;29;20039;-68
2023/08/25 09:04:50;;;;;;;2.13;0.43;;;38.60;37.50;;;;;;4907995;29;20050;-68
2023/08/25 09:07:17;;;;;;;3.97;0.80;;;36.50;40.50;;;;;;4920701;29;20094;-68
2023/08/25 09:09:45;;;;;;;1.55;0.55;;;34.80;43.50;;;;;;4919038;29;20024;-68
2023/08/25 09:12:13;;;;;;;5.95;0.77;;;34.70;43.30;;;;;;4911244;29;20036;-68
2023/08/25 09:14:38;;;;;;;2.22;0.50;;;35.80;43.70;;;;;;4900197;29;20039;-68
2023/08/25 09:17:06;;;;;;;1.98;0.68;;;36.90;40.70;;;;;;4900334;29;20417;-67
2023/08/25 09:19:33;;;;;;;2.63;0.70;;;37.90;39.10;;;;;;4897806;29;20036;-67
2023/08/25 09:21:59;;;;;;;3.42;0.50;;;38.80;38.70;;;;;;4901022;29;20055;-67
2023/08/25 09:24:26;;;;;;;2.75;0.50;;;39.20;36.90;;;;;;4896420;29;20611;-67
2023/08/25 09:26:52;;;;;;;3.88;0.50;;;39.50;37.60;;;;;;4917521;29;20153;-67
2023/08/25 09:29:17;;;;;;;2.45;0.50;;;40.00;36.80;;;;;;4918258;29;20027;-67
2023/08/25 09:31:44;;;;;;;4.78;0.50;;;40.30;35.60;;;;;;4920331;29;20024;-67
2023/08/25 09:34:13;;;;;;;3.38;0.60;;;40.30;37.40;;;;;;4929352;29;21536;-67
2023/08/25 09:36:55;;;;;;;1.45;0.50;;;40.70;36.70;;;;;;4896398;29;20395;-67
2023/08/25 09:39:22;;;;;;;2.88;0.60;;;41.20;36.20;;;;;;4890879;29;20055;-67
2023/08/25 09:41:48;;;;;;;2.55;0.60;;;40.40;33.00;;;;;;4894519;29;20673;-67
2023/08/25 09:44:17;;;;;;;1.98;0.57;;;38.90;37.40;;;;;;4893029;29;20440;-67
2023/08/25 09:46:44;;;;;;;2.55;0.50;;;37.00;38.70;;;;;;4906794;29;20060;-67
2023/08/25 09:49:13;;;;;;;3.92;0.70;;;35.00;40.50;;;;;;4883768;29;20024;-66
2023/08/25 09:51:43;;;;;;;1.25;0.50;;;33.40;42.30;;;;;;4900010;29;20032;-67
2023/08/25 09:54:13;;;;;;;3.38;0.60;;;32.40;47.00;;;;;;4901357;29;20152;-66
2023/08/25 09:56:41;;;;;;;4.75;0.68;;;32.50;44.50;;;;;;4902054;29;20578;-67
2023/08/25 09:59:08;;;;;;;2.63;0.40;;;33.20;42.00;;;;;;4902553;29;20559;-67
2023/08/25 10:01:36;;;;;;;3.17;0.55;;;33.50;42.00;;;;;;4897696;29;20373;-67
2023/08/25 10:04:03;;;;;;;1.90;0.43;;;34.10;42.90;;;;;;4899301;29;20107;-67
2023/08/25 10:06:31;;;;;;;3.35;0.40;;;34.50;42.20;;;;;;4896682;29;20071;-67
2023/08/25 10:09:00;;;;;;;2.55;0.50;;;36.10;41.60;;;;;;4893769;29;20327;-67
2023/08/25 10:11:44;;;;;;;2.42;0.40;;;37.70;39.10;;;;;;4888604;29;20106;-67
2023/08/25 10:14:12;;;;;;;3.17;0.50;;;38.10;37.90;;;;;;4888915;29;20036;-67
2023/08/25 10:16:44;;;;;;;1.48;0.57;;;38.10;36.30;;;;;;4892172;29;20480;-67
2023/08/25 10:19:16;;;;;;;2.05;0.50;;;37.90;36.60;;;;;;4889143;29;20036;-68
2023/08/25 10:21:49;;;;;;;2.40;0.60;;;38.60;38.60;;;;;;4891279;29;20151;-66
2023/08/25 10:24:17;;;;;;;1.38;0.32;;;39.50;36.00;;;;;;4886470;29;20119;-67
2023/08/25 10:26:45;;;;;;;3.33;0.60;;;40.30;35.10;;;;;;4894825;29;20041;-67
2023/08/25 10:29:12;;;;;;;1.50;0.32;;;41.30;35.00;;;;;;4895345;29;20044;-67
2023/08/25 10:31:48;;;;;;;2.53;0.68;;;42.20;33.00;;;;;;4904019;29;20352;-67
2023/08/25 10:34:32;;;;;;;2.67;0.50;;;42.30;30.60;;;;;;4908535;29;20043;-67
2023/08/25 10:37:22;;;;;;;2.90;0.82;;;42.90;33.10;;;;;;4894460;29;20545;-67
2023/08/25 10:40:06;;;;;;;1.75;0.65;;;43.00;31.00;;;;;;4892097;29;20036;-67
2023/08/25 10:42:34;;;;;;;2.20;0.60;;;41.40;32.80;;;;;;4900590;29;20427;-67
2023/08/25 10:45:09;;;;;;;1.73;0.50;;;39.40;35.60;;;;;;4891145;29;20036;-67
2023/08/25 10:47:45;;;;;;;1.75;0.60;;;37.30;34.00;;;;;;4894041;29;20060;-67
2023/08/25 10:50:11;;;;;;;2.95;0.50;;;34.80;34.80;;;;;;4889565;29;20587;-66
2023/08/25 10:52:44;;;;;;;2.30;0.60;;;34.00;39.90;;;;;;4891854;29;20095;-67
2023/08/25 10:55:28;;;;;;;1.52;0.57;;;34.30;38.30;;;;;;4891515;29;20119;-67
2023/08/25 10:58:02;;;;;;;2.15;0.47;;;34.60;40.00;;;;;;4905462;29;20035;-67
2023/08/25 11:00:36;;;;;;;2.53;0.50;;;36.20;40.50;;;;;;4893917;29;20051;-67
2023/08/25 11:03:02;;;;;;;3.00;0.70;;;37.80;37.30;;;;;;4892456;29;20578;-67
2023/08/25 11:05:34;;;;;;;2.65;0.60;;;38.70;37.00;;;;;;4893186;29;20034;-67
2023/08/25 11:08:28;;;;;;;1.67;0.50;;;38.50;36.50;;;;;;4895017;29;20079;-67
2023/08/25 11:11:14;;;;;;;1.50;0.68;;;37.80;35.80;;;;;;4890027;29;20314;-67
2023/08/25 11:13:40;;;;;;;2.38;0.63;;;37.60;35.60;;;;;;4885247;29;20551;-66
2023/08/25 11:16:11;;;;;;;1.92;0.40;;;38.00;38.40;;;;;;4896353;29;20044;-67
2023/08/25 11:18:42;;;;;;;2.63;0.70;;;38.30;37.10;;;;;;4896194;29;20036;-66
2023/08/25 11:21:08;;;;;;;1.63;0.65;;;38.80;34.70;;;;;;4888752;29;20167;-67
2023/08/25 11:23:41;;;;;;;1.98;0.50;;;39.20;36.40;;;;;;4881028;29;20028;-66
2023/08/25 11:26:08;;;;;;;1.48;0.52;;;38.80;37.00;;;;;;4908285;29;20119;-66
2023/08/25 11:28:34;;;;;;;1.38;0.50;;;38.20;37.40;;;;;;4895430;29;20051;-66
2023/08/25 11:31:00;;;;;;;3.50;1.00;;;36.40;37.60;;;;;;4898054;29;20039;-66
2023/08/25 11:33:26;;;;;;;3.28;0.80;;;34.30;40.40;;;;;;4897647;29;20378;-66
2023/08/25 11:35:53;;;;;;;2.85;0.70;;;32.70;40.80;;;;;;4894523;29;20035;-66
2023/08/25 11:38:20;;;;;;;3.80;1.00;;;31.50;45.10;;;;;;4894356;29;20248;-66
2023/08/25 11:40:45;;;;;;;3.63;0.70;;;30.50;46.90;;;;;;4904231;29;20047;-66
2023/08/25 11:43:12;;;;;;;2.53;0.73;;;30.00;45.60;;;;;;4896261;29;20392;-67
2023/08/25 11:45:38;;;;;;;2.63;0.80;;;29.80;48.50;;;;;;4895590;29;20043;-66
2023/08/25 11:48:04;;;;;;;2.05;0.80;;;29.40;48.90;;;;;;4557640;29;10000227;-66
2023/08/25 11:50:30;;;;;;;2.63;0.82;;;29.60;48.60;;;;;;4894122;29;20232;-66
2023/08/25 11:52:56;;;;;;;2.22;0.80;;;30.30;48.30;;;;;;4893894;29;20032;-66
2023/08/25 11:55:32;;;;;;;1.55;0.80;;;30.30;46.80;;;;;;4886769;29;20512;-67
2023/08/25 11:57:58;;;;;;;3.03;0.80;;;30.70;49.70;;;;;;4889717;29;20087;-67
2023/08/25 12:00:23;;;;;;;1.73;0.80;;;30.80;52.50;;;;;;4885996;29;20493;-67
2023/08/25 12:02:58;;;;;;;2.10;0.80;;;31.20;48.00;;;;;;4882887;29;20040;-66
2023/08/25 12:05:28;;;;;;;2.13;0.95;;;31.50;45.60;;;;;;4883168;29;20032;-66
2023/08/25 12:08:02;;;;;;;2.30;0.88;;;31.40;46.70;;;;;;4881212;29;20079;-66
2023/08/25 12:10:33;;;;;;;2.78;0.75;;;31.50;48.80;;;;;;4890704;29;20051;-66
2023/08/25 12:12:59;;;;;;;3.25;0.65;;;30.70;45.00;;;;;;4887984;29;20032;-66
2023/08/25 12:15:25;;;;;;;2.42;0.73;;;30.90;47.00;;;;;;4888603;29;20047;-66
2023/08/25 12:17:51;;;;;;;3.22;0.70;;;31.00;46.90;;;;;;4887448;29;20058;-67
2023/08/25 12:20:18;;;;;;;2.60;0.60;;;31.00;48.00;;;;;;4884995;29;20112;-66
2023/08/25 12:22:50;;;;;;;2.35;0.70;;;31.10;48.70;;;;;;4900272;29;20311;-66
2023/08/25 12:25:16;;;;;;;1.55;0.65;;;31.50;49.10;;;;;;4892347;29;20040;-66
2023/08/25 12:27:42;;;;;;;2.08;0.70;;;31.50;45.60;;;;;;4890710;29;20527;-66
2023/08/25 12:30:08;;;;;;;1.13;0.45;;;30.60;45.60;;;;;;4889579;29;21446;-66
2023/08/25 12:32:33;;;;;;;2.92;0.60;;;30.40;46.50;;;;;;4899329;29;20114;-66
2023/08/25 12:34:59;;;;;;;3.50;0.70;;;30.50;48.70;;;;;;4894690;29;20564;-66
2023/08/25 12:37:26;;;;;;;1.83;0.60;;;30.60;46.30;;;;;;4899869;29;20475;-69
2023/08/25 12:39:52;;;;;;;1.30;0.50;;;30.70;46.60;;;;;;4894611;29;20463;-66
2023/08/25 12:42:18;;;;;;;1.27;0.60;;;30.30;49.50;;;;;;4895950;29;20063;-66
2023/08/25 12:44:43;;;;;;;1.70;0.40;;;29.90;50.90;;;;;;4898583;29;20111;-66
2023/08/25 12:47:09;;;;;;;1.80;0.50;;;29.50;48.60;;;;;;4898163;29;20514;-66